sensor_id;sensor_type;location;lat;lon;timestamp;P1;durP1;ratioP1;P2;durP2;ratioP2
58360;SDS011;44164;44.954;10.068;2024-01-16T00:00:11;7.97;;;6.85;;
58360;SDS011;44164;44.954;10.068;2024-01-16T00:02:37;7.30;;;6.28;;
58360;SDS011;44164;44.954;10.068;2024-01-16T00:05:03;8.13;;;7.25;;
58360;SDS011;44164;44.954;10.068;2024-01-16T00:07:30;7.97;;;7.10;;
58360;SDS011;44164;44.954;10.068;2024-01-16T00:09:58;7.60;;;6.75;;
58360;SDS011;44164;44.954;10.068;2024-01-16T00:12:24;7.35;;;6.45;;
58360;SDS011;44164;44.954;10.068;2024-01-16T00:14:50;8.52;;;7.10;;
58360;SDS011;44164;44.954;10.068;2024-01-16T00:17:16;7.82;;;6.55;;
58360;SDS011;44164;44.954;10.068;2024-01-16T00:19:42;7.55;;;6.75;;
58360;SDS011;44164;44.954;10.068;2024-01-16T00:22:08;8.35;;;5.75;;
58360;SDS011;44164;44.954;10.068;2024-01-16T00:24:35;7.70;;;6.68;;
58360;SDS011;44164;44.954;10.068;2024-01-16T00:27:01;7.15;;;6.15;;
58360;SDS011;44164;44.954;10.068;2024-01-16T00:29:27;8.40;;;7.03;;
58360;SDS011;44164;44.954;10.068;2024-01-16T00:31:53;7.05;;;6.22;;
58360;SDS011;44164;44.954;10.068;2024-01-16T00:34:19;8.32;;;6.57;;
58360;SDS011;44164;44.954;10.068;2024-01-16T00:36:46;7.28;;;6.28;;
58360;SDS011;44164;44.954;10.068;2024-01-16T00:39:12;9.65;;;7.05;;
58360;SDS011;44164;44.954;10.068;2024-01-16T00:41:39;7.07;;;6.38;;
58360;SDS011;44164;44.954;10.068;2024-01-16T00:44:05;6.85;;;6.15;;
58360;SDS011;44164;44.954;10.068;2024-01-16T00:46:31;8.35;;;7.00;;
58360;SDS011;44164;44.954;10.068;2024-01-16T00:48:57;8.00;;;6.57;;
58360;SDS011;44164;44.954;10.068;2024-01-16T00:51:23;7.35;;;6.53;;
58360;SDS011;44164;44.954;10.068;2024-01-16T00:53:49;7.65;;;6.43;;
58360;SDS011;44164;44.954;10.068;2024-01-16T00:56:16;7.95;;;6.88;;
58360;SDS011;44164;44.954;10.068;2024-01-16T00:58:42;8.25;;;7.10;;
58360;SDS011;44164;44.954;10.068;2024-01-16T01:01:08;8.25;;;7.45;;
58360;SDS011;44164;44.954;10.068;2024-01-16T01:03:34;7.88;;;6.75;;
58360;SDS011;44164;44.954;10.068;2024-01-16T01:06:00;7.82;;;7.00;;
58360;SDS011;44164;44.954;10.068;2024-01-16T01:08:26;7.15;;;6.30;;
58360;SDS011;44164;44.954;10.068;2024-01-16T01:10:53;7.95;;;7.15;;
58360;SDS011;44164;44.954;10.068;2024-01-16T01:13:19;7.93;;;7.00;;
58360;SDS011;44164;44.954;10.068;2024-01-16T01:15:45;7.45;;;6.63;;
58360;SDS011;44164;44.954;10.068;2024-01-16T01:18:12;8.45;;;7.30;;
58360;SDS011;44164;44.954;10.068;2024-01-16T01:20:38;7.95;;;6.18;;
58360;SDS011;44164;44.954;10.068;2024-01-16T01:23:04;8.73;;;7.72;;
58360;SDS011;44164;44.954;10.068;2024-01-16T01:25:30;8.20;;;7.18;;
58360;SDS011;44164;44.954;10.068;2024-01-16T01:27:57;7.40;;;6.70;;
58360;SDS011;44164;44.954;10.068;2024-01-16T01:30:23;7.82;;;6.93;;
58360;SDS011;44164;44.954;10.068;2024-01-16T01:32:49;7.53;;;6.80;;
58360;SDS011;44164;44.954;10.068;2024-01-16T01:35:16;7.90;;;6.95;;
58360;SDS011;44164;44.954;10.068;2024-01-16T01:37:43;7.57;;;6.88;;
58360;SDS011;44164;44.954;10.068;2024-01-16T01:40:09;7.22;;;6.53;;
58360;SDS011;44164;44.954;10.068;2024-01-16T01:42:38;9.15;;;7.65;;
58360;SDS011;44164;44.954;10.068;2024-01-16T01:45:07;8.27;;;7.32;;
58360;SDS011;44164;44.954;10.068;2024-01-16T01:47:34;6.78;;;6.07;;
58360;SDS011;44164;44.954;10.068;2024-01-16T01:50:01;7.70;;;6.85;;
58360;SDS011;44164;44.954;10.068;2024-01-16T01:52:30;8.10;;;6.82;;
58360;SDS011;44164;44.954;10.068;2024-01-16T01:54:57;7.72;;;6.93;;
58360;SDS011;44164;44.954;10.068;2024-01-16T01:57:23;7.45;;;6.40;;
58360;SDS011;44164;44.954;10.068;2024-01-16T01:59:49;8.00;;;7.20;;
58360;SDS011;44164;44.954;10.068;2024-01-16T02:04:43;8.25;;;6.65;;
58360;SDS011;44164;44.954;10.068;2024-01-16T02:07:12;8.25;;;6.32;;
58360;SDS011;44164;44.954;10.068;2024-01-16T02:09:38;7.20;;;6.50;;
58360;SDS011;44164;44.954;10.068;2024-01-16T02:12:05;8.23;;;7.20;;
58360;SDS011;44164;44.954;10.068;2024-01-16T02:14:32;8.18;;;7.32;;
58360;SDS011;44164;44.954;10.068;2024-01-16T02:16:58;7.45;;;6.75;;
58360;SDS011;44164;44.954;10.068;2024-01-16T02:19:24;7.13;;;6.43;;
58360;SDS011;44164;44.954;10.068;2024-01-16T02:21:51;8.13;;;6.65;;
58360;SDS011;44164;44.954;10.068;2024-01-16T02:24:20;7.97;;;7.22;;
58360;SDS011;44164;44.954;10.068;2024-01-16T02:26:46;7.28;;;6.57;;
58360;SDS011;44164;44.954;10.068;2024-01-16T02:29:13;7.75;;;6.95;;
58360;SDS011;44164;44.954;10.068;2024-01-16T02:31:39;7.18;;;6.28;;
58360;SDS011;44164;44.954;10.068;2024-01-16T02:34:05;8.50;;;7.53;;
58360;SDS011;44164;44.954;10.068;2024-01-16T02:36:31;7.88;;;6.75;;
58360;SDS011;44164;44.954;10.068;2024-01-16T02:38:58;7.88;;;7.07;;
58360;SDS011;44164;44.954;10.068;2024-01-16T02:41:24;7.05;;;6.35;;
58360;SDS011;44164;44.954;10.068;2024-01-16T02:43:50;7.65;;;6.45;;
58360;SDS011;44164;44.954;10.068;2024-01-16T02:46:16;8.27;;;7.47;;
58360;SDS011;44164;44.954;10.068;2024-01-16T02:48:42;7.45;;;6.35;;
58360;SDS011;44164;44.954;10.068;2024-01-16T02:51:09;8.68;;;7.78;;
58360;SDS011;44164;44.954;10.068;2024-01-16T02:53:35;7.15;;;6.45;;
58360;SDS011;44164;44.954;10.068;2024-01-16T02:56:01;7.30;;;6.45;;
58360;SDS011;44164;44.954;10.068;2024-01-16T02:58:28;6.45;;;5.85;;
58360;SDS011;44164;44.954;10.068;2024-01-16T03:00:56;7.35;;;6.65;;
58360;SDS011;44164;44.954;10.068;2024-01-16T03:03:23;6.93;;;6.22;;
58360;SDS011;44164;44.954;10.068;2024-01-16T03:05:50;7.83;;;6.43;;
58360;SDS011;44164;44.954;10.068;2024-01-16T03:08:16;7.30;;;6.15;;
58360;SDS011;44164;44.954;10.068;2024-01-16T03:10:42;6.35;;;5.75;;
58360;SDS011;44164;44.954;10.068;2024-01-16T03:13:08;6.57;;;5.88;;
58360;SDS011;44164;44.954;10.068;2024-01-16T03:15:34;6.63;;;6.03;;
58360;SDS011;44164;44.954;10.068;2024-01-16T03:18:00;7.30;;;6.20;;
58360;SDS011;44164;44.954;10.068;2024-01-16T03:20:27;6.80;;;6.10;;
58360;SDS011;44164;44.954;10.068;2024-01-16T03:22:54;6.50;;;5.90;;
58360;SDS011;44164;44.954;10.068;2024-01-16T03:25:20;11.10;;;5.65;;
58360;SDS011;44164;44.954;10.068;2024-01-16T03:27:47;6.65;;;6.00;;
58360;SDS011;44164;44.954;10.068;2024-01-16T03:30:13;6.85;;;5.63;;
58360;SDS011;44164;44.954;10.068;2024-01-16T03:32:39;6.22;;;5.57;;
58360;SDS011;44164;44.954;10.068;2024-01-16T03:35:06;7.10;;;6.22;;
58360;SDS011;44164;44.954;10.068;2024-01-16T03:37:33;7.57;;;6.05;;
58360;SDS011;44164;44.954;10.068;2024-01-16T03:39:59;5.80;;;5.20;;
58360;SDS011;44164;44.954;10.068;2024-01-16T03:42:25;5.72;;;5.13;;
58360;SDS011;44164;44.954;10.068;2024-01-16T03:44:52;6.05;;;5.03;;
58360;SDS011;44164;44.954;10.068;2024-01-16T03:47:18;5.85;;;4.95;;
58360;SDS011;44164;44.954;10.068;2024-01-16T03:49:44;6.10;;;5.50;;
58360;SDS011;44164;44.954;10.068;2024-01-16T03:52:11;6.32;;;5.20;;
58360;SDS011;44164;44.954;10.068;2024-01-16T03:54:37;6.05;;;5.45;;
58360;SDS011;44164;44.954;10.068;2024-01-16T03:57:03;6.07;;;5.18;;
58360;SDS011;44164;44.954;10.068;2024-01-16T03:59:29;6.47;;;5.53;;
58360;SDS011;44164;44.954;10.068;2024-01-16T04:01:55;6.28;;;5.45;;
58360;SDS011;44164;44.954;10.068;2024-01-16T04:04:21;6.22;;;5.63;;
58360;SDS011;44164;44.954;10.068;2024-01-16T04:06:48;6.00;;;5.32;;
58360;SDS011;44164;44.954;10.068;2024-01-16T04:09:14;4.85;;;4.35;;
58360;SDS011;44164;44.954;10.068;2024-01-16T04:11:41;5.85;;;5.25;;
58360;SDS011;44164;44.954;10.068;2024-01-16T04:14:07;5.55;;;5.00;;
58360;SDS011;44164;44.954;10.068;2024-01-16T04:16:33;6.60;;;5.25;;
58360;SDS011;44164;44.954;10.068;2024-01-16T04:18:59;5.78;;;4.68;;
58360;SDS011;44164;44.954;10.068;2024-01-16T04:21:25;6.75;;;5.10;;
58360;SDS011;44164;44.954;10.068;2024-01-16T04:23:51;5.28;;;4.60;;
58360;SDS011;44164;44.954;10.068;2024-01-16T04:26:17;4.88;;;4.40;;
58360;SDS011;44164;44.954;10.068;2024-01-16T04:28:44;5.78;;;5.15;;
58360;SDS011;44164;44.954;10.068;2024-01-16T04:31:10;6.70;;;5.53;;
58360;SDS011;44164;44.954;10.068;2024-01-16T04:33:42;5.25;;;4.45;;
58360;SDS011;44164;44.954;10.068;2024-01-16T04:36:08;5.47;;;4.90;;
58360;SDS011;44164;44.954;10.068;2024-01-16T04:38:35;5.57;;;4.97;;
58360;SDS011;44164;44.954;10.068;2024-01-16T04:41:02;5.88;;;4.90;;
58360;SDS011;44164;44.954;10.068;2024-01-16T04:43:28;5.75;;;5.15;;
58360;SDS011;44164;44.954;10.068;2024-01-16T04:45:54;6.45;;;4.45;;
58360;SDS011;44164;44.954;10.068;2024-01-16T04:48:20;6.72;;;5.15;;
58360;SDS011;44164;44.954;10.068;2024-01-16T04:50:47;5.30;;;4.60;;
58360;SDS011;44164;44.954;10.068;2024-01-16T04:53:13;5.15;;;4.38;;
58360;SDS011;44164;44.954;10.068;2024-01-16T04:55:39;5.18;;;4.68;;
58360;SDS011;44164;44.954;10.068;2024-01-16T04:58:05;4.72;;;4.32;;
58360;SDS011;44164;44.954;10.068;2024-01-16T05:00:31;5.05;;;4.55;;
58360;SDS011;44164;44.954;10.068;2024-01-16T05:02:58;5.55;;;5.05;;
58360;SDS011;44164;44.954;10.068;2024-01-16T05:05:24;6.93;;;4.95;;
58360;SDS011;44164;44.954;10.068;2024-01-16T05:07:50;5.28;;;4.78;;
58360;SDS011;44164;44.954;10.068;2024-01-16T05:10:17;5.05;;;4.55;;
58360;SDS011;44164;44.954;10.068;2024-01-16T05:12:43;6.97;;;5.22;;
58360;SDS011;44164;44.954;10.068;2024-01-16T05:15:09;5.43;;;4.93;;
58360;SDS011;44164;44.954;10.068;2024-01-16T05:17:40;4.95;;;4.45;;
58360;SDS011;44164;44.954;10.068;2024-01-16T05:20:06;5.75;;;5.15;;
58360;SDS011;44164;44.954;10.068;2024-01-16T05:22:32;5.38;;;4.82;;
58360;SDS011;44164;44.954;10.068;2024-01-16T05:24:59;5.30;;;4.80;;
58360;SDS011;44164;44.954;10.068;2024-01-16T05:27:25;5.30;;;4.80;;
58360;SDS011;44164;44.954;10.068;2024-01-16T05:29:52;5.93;;;5.35;;
58360;SDS011;44164;44.954;10.068;2024-01-16T05:32:18;5.80;;;5.22;;
58360;SDS011;44164;44.954;10.068;2024-01-16T05:34:44;5.72;;;5.22;;
58360;SDS011;44164;44.954;10.068;2024-01-16T05:37:10;5.43;;;4.78;;
58360;SDS011;44164;44.954;10.068;2024-01-16T05:39:37;5.20;;;4.70;;
58360;SDS011;44164;44.954;10.068;2024-01-16T05:42:03;6.03;;;5.30;;
58360;SDS011;44164;44.954;10.068;2024-01-16T05:44:29;5.63;;;5.05;;
58360;SDS011;44164;44.954;10.068;2024-01-16T05:46:56;5.45;;;4.95;;
58360;SDS011;44164;44.954;10.068;2024-01-16T05:49:22;5.38;;;4.88;;
58360;SDS011;44164;44.954;10.068;2024-01-16T05:51:48;6.35;;;5.15;;
58360;SDS011;44164;44.954;10.068;2024-01-16T05:54:14;5.65;;;5.15;;
58360;SDS011;44164;44.954;10.068;2024-01-16T05:56:40;6.30;;;5.70;;
58360;SDS011;44164;44.954;10.068;2024-01-16T05:59:07;7.05;;;5.25;;
58360;SDS011;44164;44.954;10.068;2024-01-16T06:01:33;6.00;;;5.40;;
58360;SDS011;44164;44.954;10.068;2024-01-16T06:03:59;5.82;;;5.22;;
58360;SDS011;44164;44.954;10.068;2024-01-16T06:06:25;6.13;;;5.53;;
58360;SDS011;44164;44.954;10.068;2024-01-16T06:08:52;6.07;;;5.47;;
58360;SDS011;44164;44.954;10.068;2024-01-16T06:11:18;5.60;;;5.03;;
58360;SDS011;44164;44.954;10.068;2024-01-16T06:13:45;6.35;;;5.53;;
58360;SDS011;44164;44.954;10.068;2024-01-16T06:16:12;5.57;;;5.07;;
58360;SDS011;44164;44.954;10.068;2024-01-16T06:18:38;5.70;;;5.07;;
58360;SDS011;44164;44.954;10.068;2024-01-16T06:21:04;6.22;;;5.63;;
58360;SDS011;44164;44.954;10.068;2024-01-16T06:23:30;7.25;;;5.68;;
58360;SDS011;44164;44.954;10.068;2024-01-16T06:25:56;7.88;;;6.18;;
58360;SDS011;44164;44.954;10.068;2024-01-16T06:28:23;6.78;;;6.05;;
58360;SDS011;44164;44.954;10.068;2024-01-16T06:30:49;6.10;;;5.50;;
58360;SDS011;44164;44.954;10.068;2024-01-16T06:33:15;6.15;;;5.55;;
58360;SDS011;44164;44.954;10.068;2024-01-16T06:35:41;6.97;;;6.28;;
58360;SDS011;44164;44.954;10.068;2024-01-16T06:38:07;5.95;;;5.45;;
58360;SDS011;44164;44.954;10.068;2024-01-16T06:40:33;7.00;;;6.30;;
58360;SDS011;44164;44.954;10.068;2024-01-16T06:42:59;20.42;;;16.90;;
58360;SDS011;44164;44.954;10.068;2024-01-16T06:45:26;9.88;;;8.38;;
58360;SDS011;44164;44.954;10.068;2024-01-16T06:47:52;10.20;;;9.30;;
58360;SDS011;44164;44.954;10.068;2024-01-16T06:50:18;9.38;;;8.40;;
58360;SDS011;44164;44.954;10.068;2024-01-16T06:52:45;17.92;;;16.33;;
58360;SDS011;44164;44.954;10.068;2024-01-16T06:55:11;12.88;;;11.63;;
58360;SDS011;44164;44.954;10.068;2024-01-16T06:57:37;13.75;;;11.68;;
58360;SDS011;44164;44.954;10.068;2024-01-16T07:00:03;12.45;;;11.13;;
58360;SDS011;44164;44.954;10.068;2024-01-16T07:02:32;12.10;;;10.85;;
58360;SDS011;44164;44.954;10.068;2024-01-16T07:04:59;11.35;;;10.25;;
58360;SDS011;44164;44.954;10.068;2024-01-16T07:07:25;11.50;;;10.35;;
58360;SDS011;44164;44.954;10.068;2024-01-16T07:09:51;10.85;;;9.77;;
58360;SDS011;44164;44.954;10.068;2024-01-16T07:12:18;11.10;;;10.00;;
58360;SDS011;44164;44.954;10.068;2024-01-16T07:14:44;10.15;;;9.15;;
58360;SDS011;44164;44.954;10.068;2024-01-16T07:17:10;9.98;;;8.93;;
58360;SDS011;44164;44.954;10.068;2024-01-16T07:19:36;10.98;;;9.88;;
58360;SDS011;44164;44.954;10.068;2024-01-16T07:22:02;10.10;;;9.10;;
58360;SDS011;44164;44.954;10.068;2024-01-16T07:24:29;9.73;;;8.60;;
58360;SDS011;44164;44.954;10.068;2024-01-16T07:26:55;9.77;;;8.80;;
58360;SDS011;44164;44.954;10.068;2024-01-16T07:29:21;9.35;;;8.45;;
58360;SDS011;44164;44.954;10.068;2024-01-16T07:31:48;8.50;;;7.68;;
58360;SDS011;44164;44.954;10.068;2024-01-16T07:34:14;8.50;;;7.57;;
58360;SDS011;44164;44.954;10.068;2024-01-16T07:36:45;9.02;;;7.82;;
58360;SDS011;44164;44.954;10.068;2024-01-16T07:39:11;8.30;;;7.50;;
58360;SDS011;44164;44.954;10.068;2024-01-16T07:41:38;8.32;;;7.53;;
58360;SDS011;44164;44.954;10.068;2024-01-16T07:44:04;8.25;;;7.45;;
58360;SDS011;44164;44.954;10.068;2024-01-16T07:46:30;8.02;;;7.30;;
58360;SDS011;44164;44.954;10.068;2024-01-16T07:48:56;8.27;;;7.47;;
58360;SDS011;44164;44.954;10.068;2024-01-16T07:51:22;7.55;;;6.85;;
58360;SDS011;44164;44.954;10.068;2024-01-16T07:53:51;8.60;;;7.68;;
58360;SDS011;44164;44.954;10.068;2024-01-16T07:56:24;8.52;;;7.60;;
58360;SDS011;44164;44.954;10.068;2024-01-16T07:58:50;8.70;;;7.78;;
58360;SDS011;44164;44.954;10.068;2024-01-16T08:01:17;8.05;;;7.25;;
58360;SDS011;44164;44.954;10.068;2024-01-16T08:03:43;7.65;;;6.85;;
58360;SDS011;44164;44.954;10.068;2024-01-16T08:06:09;8.00;;;6.25;;
58360;SDS011;44164;44.954;10.068;2024-01-16T08:08:35;6.68;;;6.05;;
58360;SDS011;44164;44.954;10.068;2024-01-16T08:11:01;7.88;;;7.07;;
58360;SDS011;44164;44.954;10.068;2024-01-16T08:13:28;7.72;;;6.85;;
58360;SDS011;44164;44.954;10.068;2024-01-16T08:15:54;8.50;;;7.25;;
58360;SDS011;44164;44.954;10.068;2024-01-16T08:18:20;9.00;;;6.55;;
58360;SDS011;44164;44.954;10.068;2024-01-16T08:20:46;7.35;;;6.65;;
58360;SDS011;44164;44.954;10.068;2024-01-16T08:23:12;7.63;;;6.82;;
58360;SDS011;44164;44.954;10.068;2024-01-16T08:25:39;7.78;;;6.07;;
58360;SDS011;44164;44.954;10.068;2024-01-16T08:28:05;6.22;;;5.68;;
58360;SDS011;44164;44.954;10.068;2024-01-16T08:30:31;7.15;;;6.45;;
58360;SDS011;44164;44.954;10.068;2024-01-16T08:32:57;7.30;;;6.60;;
58360;SDS011;44164;44.954;10.068;2024-01-16T08:35:24;6.63;;;5.90;;
58360;SDS011;44164;44.954;10.068;2024-01-16T08:37:50;6.80;;;6.10;;
58360;SDS011;44164;44.954;10.068;2024-01-16T08:40:16;6.30;;;5.70;;
58360;SDS011;44164;44.954;10.068;2024-01-16T08:42:43;6.97;;;6.25;;
58360;SDS011;44164;44.954;10.068;2024-01-16T08:45:09;5.95;;;5.35;;
58360;SDS011;44164;44.954;10.068;2024-01-16T08:47:35;6.93;;;5.90;;
58360;SDS011;44164;44.954;10.068;2024-01-16T08:50:01;7.00;;;6.30;;
58360;SDS011;44164;44.954;10.068;2024-01-16T08:52:28;7.80;;;5.80;;
58360;SDS011;44164;44.954;10.068;2024-01-16T08:54:54;6.32;;;5.38;;
58360;SDS011;44164;44.954;10.068;2024-01-16T08:57:20;6.38;;;5.78;;
58360;SDS011;44164;44.954;10.068;2024-01-16T08:59:46;6.50;;;5.72;;
58360;SDS011;44164;44.954;10.068;2024-01-16T09:02:13;5.55;;;5.05;;
58360;SDS011;44164;44.954;10.068;2024-01-16T09:04:39;6.80;;;6.10;;
58360;SDS011;44164;44.954;10.068;2024-01-16T09:07:05;6.65;;;5.72;;
58360;SDS011;44164;44.954;10.068;2024-01-16T09:09:32;6.30;;;5.70;;
58360;SDS011;44164;44.954;10.068;2024-01-16T09:11:58;6.72;;;5.65;;
58360;SDS011;44164;44.954;10.068;2024-01-16T09:14:25;6.30;;;5.32;;
58360;SDS011;44164;44.954;10.068;2024-01-16T09:16:51;5.80;;;5.30;;
58360;SDS011;44164;44.954;10.068;2024-01-16T09:19:19;6.20;;;5.60;;
58360;SDS011;44164;44.954;10.068;2024-01-16T09:21:45;6.53;;;5.00;;
58360;SDS011;44164;44.954;10.068;2024-01-16T09:24:11;5.30;;;4.80;;
58360;SDS011;44164;44.954;10.068;2024-01-16T09:26:38;5.45;;;4.95;;
58360;SDS011;44164;44.954;10.068;2024-01-16T09:29:04;7.35;;;5.80;;
58360;SDS011;44164;44.954;10.068;2024-01-16T09:31:30;5.15;;;4.63;;
58360;SDS011;44164;44.954;10.068;2024-01-16T09:33:56;5.65;;;4.78;;
58360;SDS011;44164;44.954;10.068;2024-01-16T09:36:23;5.50;;;5.00;;
58360;SDS011;44164;44.954;10.068;2024-01-16T09:38:49;5.97;;;5.30;;
58360;SDS011;44164;44.954;10.068;2024-01-16T09:41:15;6.00;;;5.40;;
58360;SDS011;44164;44.954;10.068;2024-01-16T09:43:41;5.30;;;4.60;;
58360;SDS011;44164;44.954;10.068;2024-01-16T09:46:08;6.63;;;5.47;;
58360;SDS011;44164;44.954;10.068;2024-01-16T09:48:36;5.40;;;4.90;;
58360;SDS011;44164;44.954;10.068;2024-01-16T09:51:02;7.78;;;5.28;;
58360;SDS011;44164;44.954;10.068;2024-01-16T09:53:29;5.13;;;4.63;;
58360;SDS011;44164;44.954;10.068;2024-01-16T09:55:55;5.82;;;5.32;;
58360;SDS011;44164;44.954;10.068;2024-01-16T09:58:24;5.82;;;5.25;;
58360;SDS011;44164;44.954;10.068;2024-01-16T10:00:51;6.32;;;5.28;;
58360;SDS011;44164;44.954;10.068;2024-01-16T10:03:18;5.70;;;4.90;;
58360;SDS011;44164;44.954;10.068;2024-01-16T10:05:45;6.07;;;5.07;;
58360;SDS011;44164;44.954;10.068;2024-01-16T10:08:12;6.20;;;5.30;;
58360;SDS011;44164;44.954;10.068;2024-01-16T10:10:38;5.95;;;5.35;;
58360;SDS011;44164;44.954;10.068;2024-01-16T10:13:05;5.33;;;4.83;;
58360;SDS011;44164;44.954;10.068;2024-01-16T10:15:32;6.00;;;5.40;;
58360;SDS011;44164;44.954;10.068;2024-01-16T10:17:59;6.20;;;5.60;;
58360;SDS011;44164;44.954;10.068;2024-01-16T10:20:32;5.35;;;4.85;;
58360;SDS011;44164;44.954;10.068;2024-01-16T10:23:00;5.35;;;4.82;;
58360;SDS011;44164;44.954;10.068;2024-01-16T10:25:26;5.85;;;5.25;;
58360;SDS011;44164;44.954;10.068;2024-01-16T10:28:04;5.47;;;4.88;;
58360;SDS011;44164;44.954;10.068;2024-01-16T10:30:33;8.70;;;5.07;;
58360;SDS011;44164;44.954;10.068;2024-01-16T10:33:15;5.93;;;5.32;;
58360;SDS011;44164;44.954;10.068;2024-01-16T10:35:42;6.00;;;5.40;;
58360;SDS011;44164;44.954;10.068;2024-01-16T10:38:08;6.00;;;5.30;;
58360;SDS011;44164;44.954;10.068;2024-01-16T10:40:34;6.93;;;5.88;;
58360;SDS011;44164;44.954;10.068;2024-01-16T10:43:01;7.90;;;5.75;;
58360;SDS011;44164;44.954;10.068;2024-01-16T10:48:04;6.75;;;5.65;;
58360;SDS011;44164;44.954;10.068;2024-01-16T10:50:32;6.05;;;5.45;;
58360;SDS011;44164;44.954;10.068;2024-01-16T10:53:03;6.20;;;5.60;;
58360;SDS011;44164;44.954;10.068;2024-01-16T10:55:30;6.93;;;5.30;;
58360;SDS011;44164;44.954;10.068;2024-01-16T10:57:58;8.73;;;6.10;;
58360;SDS011;44164;44.954;10.068;2024-01-16T11:00:26;8.00;;;5.95;;
58360;SDS011;44164;44.954;10.068;2024-01-16T11:02:59;8.85;;;5.82;;
58360;SDS011;44164;44.954;10.068;2024-01-16T11:05:31;7.03;;;5.85;;
58360;SDS011;44164;44.954;10.068;2024-01-16T11:07:59;7.13;;;5.97;;
58360;SDS011;44164;44.954;10.068;2024-01-16T11:10:29;8.23;;;6.28;;
58360;SDS011;44164;44.954;10.068;2024-01-16T11:12:59;7.07;;;6.32;;
58360;SDS011;44164;44.954;10.068;2024-01-16T11:15:27;8.38;;;6.72;;
58360;SDS011;44164;44.954;10.068;2024-01-16T11:17:54;7.63;;;6.72;;
58360;SDS011;44164;44.954;10.068;2024-01-16T11:20:21;9.68;;;6.90;;
58360;SDS011;44164;44.954;10.068;2024-01-16T11:22:48;8.45;;;7.15;;
58360;SDS011;44164;44.954;10.068;2024-01-16T11:25:15;7.35;;;6.40;;
58360;SDS011;44164;44.954;10.068;2024-01-16T11:27:43;7.88;;;7.07;;
58360;SDS011;44164;44.954;10.068;2024-01-16T11:30:10;7.83;;;7.03;;
58360;SDS011;44164;44.954;10.068;2024-01-16T11:32:38;11.07;;;7.15;;
58360;SDS011;44164;44.954;10.068;2024-01-16T11:35:10;8.30;;;6.60;;
58360;SDS011;44164;44.954;10.068;2024-01-16T11:37:40;8.95;;;7.75;;
58360;SDS011;44164;44.954;10.068;2024-01-16T11:48:18;8.93;;;7.70;;
58360;SDS011;44164;44.954;10.068;2024-01-16T11:50:44;8.07;;;6.55;;
58360;SDS011;44164;44.954;10.068;2024-01-16T11:53:14;9.38;;;7.55;;
58360;SDS011;44164;44.954;10.068;2024-01-16T11:58:57;9.95;;;8.95;;
58360;SDS011;44164;44.954;10.068;2024-01-16T12:01:30;10.20;;;8.85;;
58360;SDS011;44164;44.954;10.068;2024-01-16T12:04:03;9.93;;;8.93;;
58360;SDS011;44164;44.954;10.068;2024-01-16T12:06:31;12.13;;;10.00;;
58360;SDS011;44164;44.954;10.068;2024-01-16T12:09:13;12.10;;;9.48;;
58360;SDS011;44164;44.954;10.068;2024-01-16T12:11:40;11.07;;;9.07;;
58360;SDS011;44164;44.954;10.068;2024-01-16T12:14:14;11.85;;;8.50;;
58360;SDS011;44164;44.954;10.068;2024-01-16T12:16:40;10.75;;;9.63;;
58360;SDS011;44164;44.954;10.068;2024-01-16T12:19:07;13.07;;;8.60;;
58360;SDS011;44164;44.954;10.068;2024-01-16T12:21:43;11.32;;;9.15;;
58360;SDS011;44164;44.954;10.068;2024-01-16T12:24:11;11.07;;;9.07;;
58360;SDS011;44164;44.954;10.068;2024-01-16T12:26:38;9.55;;;8.35;;
58360;SDS011;44164;44.954;10.068;2024-01-16T12:29:05;10.93;;;8.15;;
58360;SDS011;44164;44.954;10.068;2024-01-16T12:31:31;11.40;;;9.05;;
58360;SDS011;44164;44.954;10.068;2024-01-16T12:34:07;11.80;;;8.57;;
58360;SDS011;44164;44.954;10.068;2024-01-16T12:36:34;10.52;;;8.15;;
58360;SDS011;44164;44.954;10.068;2024-01-16T12:39:00;10.32;;;8.10;;
58360;SDS011;44164;44.954;10.068;2024-01-16T12:41:28;10.93;;;7.97;;
58360;SDS011;44164;44.954;10.068;2024-01-16T12:43:58;10.10;;;8.10;;
58360;SDS011;44164;44.954;10.068;2024-01-16T12:46:25;11.63;;;8.00;;
58360;SDS011;44164;44.954;10.068;2024-01-16T12:48:51;8.65;;;6.93;;
58360;SDS011;44164;44.954;10.068;2024-01-16T12:51:20;10.48;;;8.30;;
58360;SDS011;44164;44.954;10.068;2024-01-16T12:53:50;8.85;;;7.40;;
58360;SDS011;44164;44.954;10.068;2024-01-16T12:56:19;10.68;;;7.88;;
58360;SDS011;44164;44.954;10.068;2024-01-16T12:58:46;20.13;;;7.93;;
58360;SDS011;44164;44.954;10.068;2024-01-16T13:03:49;9.00;;;7.95;;
58360;SDS011;44164;44.954;10.068;2024-01-16T13:06:17;10.43;;;7.38;;
58360;SDS011;44164;44.954;10.068;2024-01-16T13:08:47;9.25;;;7.07;;
58360;SDS011;44164;44.954;10.068;2024-01-16T13:11:16;8.80;;;7.55;;
58360;SDS011;44164;44.954;10.068;2024-01-16T13:13:49;8.63;;;7.57;;
58360;SDS011;44164;44.954;10.068;2024-01-16T13:16:29;11.23;;;8.10;;
58360;SDS011;44164;44.954;10.068;2024-01-16T13:19:01;9.45;;;7.32;;
58360;SDS011;44164;44.954;10.068;2024-01-16T13:21:29;7.97;;;7.03;;
58360;SDS011;44164;44.954;10.068;2024-01-16T13:23:56;10.25;;;7.45;;
58360;SDS011;44164;44.954;10.068;2024-01-16T13:26:22;9.05;;;7.47;;
58360;SDS011;44164;44.954;10.068;2024-01-16T13:28:48;8.70;;;7.28;;
58360;SDS011;44164;44.954;10.068;2024-01-16T13:31:14;10.00;;;7.97;;
58360;SDS011;44164;44.954;10.068;2024-01-16T13:33:41;12.60;;;8.80;;
58360;SDS011;44164;44.954;10.068;2024-01-16T13:36:09;8.50;;;7.37;;
58360;SDS011;44164;44.954;10.068;2024-01-16T13:38:35;11.18;;;8.30;;
58360;SDS011;44164;44.954;10.068;2024-01-16T13:41:01;13.77;;;10.52;;
58360;SDS011;44164;44.954;10.068;2024-01-16T13:43:28;30.60;;;12.98;;
58360;SDS011;44164;44.954;10.068;2024-01-16T13:45:54;12.45;;;10.77;;
58360;SDS011;44164;44.954;10.068;2024-01-16T13:48:20;15.27;;;10.63;;
58360;SDS011;44164;44.954;10.068;2024-01-16T13:50:47;11.80;;;10.10;;
58360;SDS011;44164;44.954;10.068;2024-01-16T13:55:42;12.73;;;10.45;;
58360;SDS011;44164;44.954;10.068;2024-01-16T13:58:08;10.77;;;9.35;;
58360;SDS011;44164;44.954;10.068;2024-01-16T14:00:35;11.75;;;9.65;;
58360;SDS011;44164;44.954;10.068;2024-01-16T14:03:01;13.52;;;10.32;;
58360;SDS011;44164;44.954;10.068;2024-01-16T14:05:29;12.85;;;9.30;;
58360;SDS011;44164;44.954;10.068;2024-01-16T14:07:55;14.70;;;9.30;;
58360;SDS011;44164;44.954;10.068;2024-01-16T14:10:21;12.02;;;9.48;;
58360;SDS011;44164;44.954;10.068;2024-01-16T14:12:51;14.25;;;9.38;;
58360;SDS011;44164;44.954;10.068;2024-01-16T14:15:19;15.63;;;10.65;;
58360;SDS011;44164;44.954;10.068;2024-01-16T14:17:47;12.82;;;9.77;;
58360;SDS011;44164;44.954;10.068;2024-01-16T14:20:15;10.55;;;9.18;;
58360;SDS011;44164;44.954;10.068;2024-01-16T14:22:42;11.95;;;10.48;;
58360;SDS011;44164;44.954;10.068;2024-01-16T14:25:09;12.18;;;10.57;;
58360;SDS011;44164;44.954;10.068;2024-01-16T14:27:37;14.73;;;10.63;;
58360;SDS011;44164;44.954;10.068;2024-01-16T14:30:07;16.35;;;11.60;;
58360;SDS011;44164;44.954;10.068;2024-01-16T14:32:36;15.48;;;12.18;;
58360;SDS011;44164;44.954;10.068;2024-01-16T14:35:06;16.90;;;10.25;;
58360;SDS011;44164;44.954;10.068;2024-01-16T14:37:36;17.50;;;11.27;;
58360;SDS011;44164;44.954;10.068;2024-01-16T14:40:04;15.98;;;11.18;;
58360;SDS011;44164;44.954;10.068;2024-01-16T14:42:49;14.70;;;11.38;;
58360;SDS011;44164;44.954;10.068;2024-01-16T14:45:25;15.77;;;12.75;;
58360;SDS011;44164;44.954;10.068;2024-01-16T14:47:54;18.10;;;12.95;;
58360;SDS011;44164;44.954;10.068;2024-01-16T14:50:21;15.27;;;12.52;;